sensor_id;sensor_type;location;lat;lon;timestamp;P1;durP1;ratioP1;P2;durP2;ratioP2
67798;SDS011;54596;43.216;27.904;2022-10-16T00:02:23;17.83;;;11.18;;
67798;SDS011;54596;43.216;27.904;2022-10-16T00:04:49;16.85;;;11.23;;
67798;SDS011;54596;43.216;27.904;2022-10-16T00:07:14;17.02;;;10.20;;
67798;SDS011;54596;43.216;27.904;2022-10-16T00:09:40;15.07;;;9.65;;
67798;SDS011;54596;43.216;27.904;2022-10-16T00:12:05;19.98;;;10.13;;
67798;SDS011;54596;43.216;27.904;2022-10-16T00:14:32;15.40;;;9.73;;
67798;SDS011;54596;43.216;27.904;2022-10-16T00:16:57;14.95;;;9.80;;
67798;SDS011;54596;43.216;27.904;2022-10-16T00:19:23;14.80;;;8.77;;
67798;SDS011;54596;43.216;27.904;2022-10-16T00:21:48;14.18;;;8.77;;
67798;SDS011;54596;43.216;27.904;2022-10-16T00:24:14;16.75;;;8.85;;
67798;SDS011;54596;43.216;27.904;2022-10-16T00:26:39;17.02;;;9.35;;
67798;SDS011;54596;43.216;27.904;2022-10-16T00:29:05;14.65;;;8.63;;
67798;SDS011;54596;43.216;27.904;2022-10-16T00:31:31;14.65;;;8.10;;
67798;SDS011;54596;43.216;27.904;2022-10-16T00:33:57;15.40;;;8.10;;
67798;SDS011;54596;43.216;27.904;2022-10-16T00:36:23;15.15;;;7.95;;
67798;SDS011;54596;43.216;27.904;2022-10-16T00:38:50;15.52;;;7.80;;
67798;SDS011;54596;43.216;27.904;2022-10-16T00:41:21;18.17;;;7.43;;
67798;SDS011;54596;43.216;27.904;2022-10-16T00:43:51;14.02;;;7.53;;
67798;SDS011;54596;43.216;27.904;2022-10-16T00:48:52;13.98;;;7.85;;
67798;SDS011;54596;43.216;27.904;2022-10-16T00:51:28;15.32;;;7.40;;
67798;SDS011;54596;43.216;27.904;2022-10-16T00:53:59;13.38;;;6.82;;
67798;SDS011;54596;43.216;27.904;2022-10-16T00:56:27;13.50;;;6.82;;
67798;SDS011;54596;43.216;27.904;2022-10-16T00:58:53;11.77;;;6.35;;
67798;SDS011;54596;43.216;27.904;2022-10-16T01:01:18;14.05;;;7.38;;
67798;SDS011;54596;43.216;27.904;2022-10-16T01:03:44;13.63;;;7.30;;
67798;SDS011;54596;43.216;27.904;2022-10-16T01:06:23;12.85;;;6.53;;
67798;SDS011;54596;43.216;27.904;2022-10-16T01:09:03;13.55;;;6.50;;
67798;SDS011;54596;43.216;27.904;2022-10-16T01:14:54;12.60;;;6.95;;
67798;SDS011;54596;43.216;27.904;2022-10-16T01:17:32;11.85;;;6.32;;
67798;SDS011;54596;43.216;27.904;2022-10-16T01:25:25;14.07;;;6.70;;
67798;SDS011;54596;43.216;27.904;2022-10-16T01:28:18;12.35;;;6.90;;
67798;SDS011;54596;43.216;27.904;2022-10-16T01:30:47;11.70;;;6.40;;
67798;SDS011;54596;43.216;27.904;2022-10-16T01:33:22;12.65;;;6.80;;
67798;SDS011;54596;43.216;27.904;2022-10-16T01:35:54;13.55;;;6.75;;
67798;SDS011;54596;43.216;27.904;2022-10-16T01:38:37;13.88;;;6.70;;
67798;SDS011;54596;43.216;27.904;2022-10-16T01:41:06;14.75;;;6.53;;
67798;SDS011;54596;43.216;27.904;2022-10-16T01:43:49;12.20;;;5.70;;
67798;SDS011;54596;43.216;27.904;2022-10-16T01:46:36;13.57;;;6.13;;
67798;SDS011;54596;43.216;27.904;2022-10-16T01:49:04;13.48;;;6.28;;
67798;SDS011;54596;43.216;27.904;2022-10-16T01:51:33;11.93;;;6.38;;
67798;SDS011;54596;43.216;27.904;2022-10-16T01:54:00;14.77;;;6.60;;
67798;SDS011;54596;43.216;27.904;2022-10-16T01:56:27;12.63;;;5.88;;
67798;SDS011;54596;43.216;27.904;2022-10-16T01:58:58;11.15;;;5.93;;
67798;SDS011;54596;43.216;27.904;2022-10-16T02:01:29;10.90;;;5.57;;
67798;SDS011;54596;43.216;27.904;2022-10-16T02:03:59;12.95;;;5.97;;
67798;SDS011;54596;43.216;27.904;2022-10-16T02:06:29;13.27;;;5.45;;
67798;SDS011;54596;43.216;27.904;2022-10-16T02:08:55;12.20;;;5.50;;
67798;SDS011;54596;43.216;27.904;2022-10-16T02:11:20;9.75;;;5.15;;
67798;SDS011;54596;43.216;27.904;2022-10-16T02:13:53;12.52;;;5.63;;
67798;SDS011;54596;43.216;27.904;2022-10-16T02:16:39;14.55;;;5.63;;
67798;SDS011;54596;43.216;27.904;2022-10-16T02:19:11;9.82;;;4.53;;
67798;SDS011;54596;43.216;27.904;2022-10-16T02:21:49;11.25;;;4.88;;
67798;SDS011;54596;43.216;27.904;2022-10-16T02:29:30;10.73;;;4.70;;
67798;SDS011;54596;43.216;27.904;2022-10-16T02:31:59;9.45;;;4.32;;
67798;SDS011;54596;43.216;27.904;2022-10-16T02:34:27;10.93;;;4.20;;
67798;SDS011;54596;43.216;27.904;2022-10-16T02:36:54;8.60;;;4.22;;
67798;SDS011;54596;43.216;27.904;2022-10-16T02:39:21;11.80;;;4.85;;
67798;SDS011;54596;43.216;27.904;2022-10-16T02:41:47;10.32;;;4.28;;
67798;SDS011;54596;43.216;27.904;2022-10-16T02:44:13;10.15;;;4.22;;
67798;SDS011;54596;43.216;27.904;2022-10-16T02:46:38;11.65;;;4.60;;
67798;SDS011;54596;43.216;27.904;2022-10-16T02:49:04;10.40;;;4.20;;
67798;SDS011;54596;43.216;27.904;2022-10-16T02:51:29;9.80;;;4.50;;
67798;SDS011;54596;43.216;27.904;2022-10-16T02:53:55;10.32;;;4.40;;
67798;SDS011;54596;43.216;27.904;2022-10-16T02:56:20;11.65;;;4.57;;
67798;SDS011;54596;43.216;27.904;2022-10-16T02:58:46;10.20;;;4.63;;
67798;SDS011;54596;43.216;27.904;2022-10-16T03:01:12;9.73;;;4.18;;
67798;SDS011;54596;43.216;27.904;2022-10-16T03:03:39;9.55;;;4.07;;
67798;SDS011;54596;43.216;27.904;2022-10-16T03:06:04;10.88;;;4.10;;
67798;SDS011;54596;43.216;27.904;2022-10-16T03:08:30;11.70;;;4.30;;
67798;SDS011;54596;43.216;27.904;2022-10-16T03:10:56;12.48;;;4.30;;
67798;SDS011;54596;43.216;27.904;2022-10-16T03:13:21;10.85;;;4.25;;
67798;SDS011;54596;43.216;27.904;2022-10-16T03:15:47;9.63;;;4.13;;
67798;SDS011;54596;43.216;27.904;2022-10-16T03:18:12;11.02;;;4.20;;
67798;SDS011;54596;43.216;27.904;2022-10-16T03:20:38;11.20;;;4.35;;
67798;SDS011;54596;43.216;27.904;2022-10-16T03:23:04;11.00;;;4.20;;
67798;SDS011;54596;43.216;27.904;2022-10-16T03:25:29;12.80;;;4.05;;
67798;SDS011;54596;43.216;27.904;2022-10-16T03:27:55;12.35;;;4.35;;
67798;SDS011;54596;43.216;27.904;2022-10-16T03:30:20;9.98;;;4.10;;
67798;SDS011;54596;43.216;27.904;2022-10-16T03:32:46;10.70;;;4.20;;
67798;SDS011;54596;43.216;27.904;2022-10-16T03:35:12;9.07;;;4.15;;
67798;SDS011;54596;43.216;27.904;2022-10-16T03:37:37;9.25;;;4.03;;
67798;SDS011;54596;43.216;27.904;2022-10-16T03:40:03;12.40;;;5.20;;
67798;SDS011;54596;43.216;27.904;2022-10-16T03:42:29;11.23;;;4.10;;
67798;SDS011;54596;43.216;27.904;2022-10-16T03:44:55;9.57;;;4.13;;
67798;SDS011;54596;43.216;27.904;2022-10-16T03:47:20;10.50;;;4.03;;
67798;SDS011;54596;43.216;27.904;2022-10-16T03:49:48;11.20;;;4.00;;
67798;SDS011;54596;43.216;27.904;2022-10-16T03:52:14;10.25;;;4.43;;
67798;SDS011;54596;43.216;27.904;2022-10-16T03:54:39;11.15;;;4.05;;
67798;SDS011;54596;43.216;27.904;2022-10-16T03:57:05;11.40;;;4.32;;
67798;SDS011;54596;43.216;27.904;2022-10-16T03:59:30;9.90;;;4.53;;
67798;SDS011;54596;43.216;27.904;2022-10-16T04:01:56;11.77;;;4.35;;
67798;SDS011;54596;43.216;27.904;2022-10-16T04:04:21;10.20;;;4.65;;
67798;SDS011;54596;43.216;27.904;2022-10-16T04:06:47;14.70;;;5.80;;
67798;SDS011;54596;43.216;27.904;2022-10-16T04:09:12;10.93;;;5.43;;
67798;SDS011;54596;43.216;27.904;2022-10-16T04:11:38;10.77;;;5.25;;
67798;SDS011;54596;43.216;27.904;2022-10-16T04:14:04;11.00;;;4.88;;
67798;SDS011;54596;43.216;27.904;2022-10-16T04:16:29;15.57;;;4.95;;
67798;SDS011;54596;43.216;27.904;2022-10-16T04:18:55;11.32;;;4.93;;
67798;SDS011;54596;43.216;27.904;2022-10-16T04:21:20;11.13;;;4.88;;
67798;SDS011;54596;43.216;27.904;2022-10-16T04:23:46;11.35;;;5.25;;
67798;SDS011;54596;43.216;27.904;2022-10-16T04:26:11;11.98;;;4.90;;
67798;SDS011;54596;43.216;27.904;2022-10-16T04:28:37;13.07;;;5.97;;
67798;SDS011;54596;43.216;27.904;2022-10-16T04:31:05;11.07;;;5.60;;
67798;SDS011;54596;43.216;27.904;2022-10-16T04:33:32;14.15;;;6.20;;
67798;SDS011;54596;43.216;27.904;2022-10-16T04:35:58;13.50;;;6.13;;
67798;SDS011;54596;43.216;27.904;2022-10-16T04:38:25;12.90;;;5.90;;
67798;SDS011;54596;43.216;27.904;2022-10-16T04:40:51;12.20;;;6.13;;
67798;SDS011;54596;43.216;27.904;2022-10-16T04:43:17;11.32;;;5.47;;
67798;SDS011;54596;43.216;27.904;2022-10-16T04:45:42;12.48;;;6.00;;
67798;SDS011;54596;43.216;27.904;2022-10-16T04:48:08;12.13;;;6.00;;
67798;SDS011;54596;43.216;27.904;2022-10-16T04:50:34;14.10;;;7.00;;
67798;SDS011;54596;43.216;27.904;2022-10-16T04:52:59;14.50;;;6.40;;
67798;SDS011;54596;43.216;27.904;2022-10-16T04:55:25;13.63;;;6.43;;
67798;SDS011;54596;43.216;27.904;2022-10-16T04:57:50;12.68;;;6.78;;
67798;SDS011;54596;43.216;27.904;2022-10-16T05:00:16;13.50;;;7.57;;
67798;SDS011;54596;43.216;27.904;2022-10-16T05:02:41;12.70;;;7.22;;
67798;SDS011;54596;43.216;27.904;2022-10-16T05:05:07;13.93;;;7.25;;
67798;SDS011;54596;43.216;27.904;2022-10-16T05:07:33;16.73;;;7.18;;
67798;SDS011;54596;43.216;27.904;2022-10-16T05:09:58;13.55;;;6.38;;
67798;SDS011;54596;43.216;27.904;2022-10-16T05:12:23;12.55;;;7.15;;
67798;SDS011;54596;43.216;27.904;2022-10-16T05:14:49;12.77;;;6.85;;
67798;SDS011;54596;43.216;27.904;2022-10-16T05:17:14;12.07;;;6.60;;
67798;SDS011;54596;43.216;27.904;2022-10-16T05:19:40;16.75;;;8.30;;
67798;SDS011;54596;43.216;27.904;2022-10-16T05:22:05;13.57;;;6.85;;
67798;SDS011;54596;43.216;27.904;2022-10-16T05:24:31;15.70;;;6.63;;
67798;SDS011;54596;43.216;27.904;2022-10-16T05:26:56;11.35;;;5.90;;
67798;SDS011;54596;43.216;27.904;2022-10-16T05:29:22;12.25;;;6.25;;
67798;SDS011;54596;43.216;27.904;2022-10-16T05:31:49;12.95;;;6.15;;
67798;SDS011;54596;43.216;27.904;2022-10-16T05:34:16;12.77;;;6.00;;
67798;SDS011;54596;43.216;27.904;2022-10-16T05:36:42;13.23;;;5.43;;
67798;SDS011;54596;43.216;27.904;2022-10-16T05:39:09;10.82;;;4.85;;
67798;SDS011;54596;43.216;27.904;2022-10-16T05:41:35;10.90;;;5.00;;
67798;SDS011;54596;43.216;27.904;2022-10-16T05:44:03;11.95;;;4.65;;
67798;SDS011;54596;43.216;27.904;2022-10-16T05:46:29;10.13;;;4.50;;
67798;SDS011;54596;43.216;27.904;2022-10-16T05:48:54;11.35;;;5.15;;
67798;SDS011;54596;43.216;27.904;2022-10-16T05:51:20;10.80;;;4.82;;
67798;SDS011;54596;43.216;27.904;2022-10-16T05:53:45;12.18;;;5.30;;
67798;SDS011;54596;43.216;27.904;2022-10-16T05:56:11;13.13;;;4.57;;
67798;SDS011;54596;43.216;27.904;2022-10-16T05:58:38;10.70;;;4.60;;
67798;SDS011;54596;43.216;27.904;2022-10-16T06:01:16;16.75;;;5.28;;
67798;SDS011;54596;43.216;27.904;2022-10-16T06:03:43;11.50;;;5.80;;
67798;SDS011;54596;43.216;27.904;2022-10-16T06:06:09;12.63;;;4.88;;
67798;SDS011;54596;43.216;27.904;2022-10-16T06:08:36;11.82;;;4.68;;
67798;SDS011;54596;43.216;27.904;2022-10-16T06:11:02;18.50;;;5.00;;
67798;SDS011;54596;43.216;27.904;2022-10-16T06:13:28;11.82;;;4.68;;
67798;SDS011;54596;43.216;27.904;2022-10-16T06:15:56;11.98;;;4.90;;
67798;SDS011;54596;43.216;27.904;2022-10-16T06:18:22;11.77;;;4.75;;
67798;SDS011;54596;43.216;27.904;2022-10-16T06:20:48;9.43;;;3.90;;
67798;SDS011;54596;43.216;27.904;2022-10-16T06:23:13;8.07;;;3.92;;
67798;SDS011;54596;43.216;27.904;2022-10-16T06:25:39;10.65;;;4.95;;
67798;SDS011;54596;43.216;27.904;2022-10-16T06:28:04;13.07;;;5.30;;
67798;SDS011;54596;43.216;27.904;2022-10-16T06:30:30;10.48;;;3.90;;
67798;SDS011;54596;43.216;27.904;2022-10-16T06:32:55;13.45;;;4.20;;
67798;SDS011;54596;43.216;27.904;2022-10-16T06:35:21;15.38;;;7.88;;
67798;SDS011;54596;43.216;27.904;2022-10-16T06:37:47;11.93;;;5.70;;
67798;SDS011;54596;43.216;27.904;2022-10-16T06:40:12;9.60;;;3.40;;
67798;SDS011;54596;43.216;27.904;2022-10-16T06:42:39;9.57;;;3.50;;
67798;SDS011;54596;43.216;27.904;2022-10-16T06:45:05;8.82;;;3.10;;
67798;SDS011;54596;43.216;27.904;2022-10-16T06:47:31;7.60;;;3.00;;
67798;SDS011;54596;43.216;27.904;2022-10-16T06:49:56;12.80;;;4.28;;
67798;SDS011;54596;43.216;27.904;2022-10-16T06:52:22;10.02;;;3.42;;
67798;SDS011;54596;43.216;27.904;2022-10-16T06:54:47;8.25;;;3.55;;
67798;SDS011;54596;43.216;27.904;2022-10-16T06:57:14;15.27;;;8.27;;
67798;SDS011;54596;43.216;27.904;2022-10-16T06:59:40;12.45;;;4.00;;
67798;SDS011;54596;43.216;27.904;2022-10-16T07:02:05;12.63;;;4.82;;
67798;SDS011;54596;43.216;27.904;2022-10-16T07:04:32;9.82;;;3.92;;
67798;SDS011;54596;43.216;27.904;2022-10-16T07:06:59;14.50;;;3.30;;
67798;SDS011;54596;43.216;27.904;2022-10-16T07:09:25;8.82;;;3.53;;
67798;SDS011;54596;43.216;27.904;2022-10-16T07:11:51;9.25;;;3.30;;
67798;SDS011;54596;43.216;27.904;2022-10-16T07:14:17;9.73;;;3.80;;
67798;SDS011;54596;43.216;27.904;2022-10-16T07:16:44;11.48;;;2.83;;
67798;SDS011;54596;43.216;27.904;2022-10-16T07:19:09;7.97;;;2.80;;
67798;SDS011;54596;43.216;27.904;2022-10-16T07:21:37;7.03;;;2.90;;
67798;SDS011;54596;43.216;27.904;2022-10-16T07:24:04;8.05;;;3.70;;
67798;SDS011;54596;43.216;27.904;2022-10-16T07:26:32;8.40;;;3.15;;
67798;SDS011;54596;43.216;27.904;2022-10-16T07:29:01;10.75;;;2.90;;
67798;SDS011;54596;43.216;27.904;2022-10-16T07:31:26;8.50;;;2.60;;
67798;SDS011;54596;43.216;27.904;2022-10-16T07:33:52;9.00;;;2.80;;
67798;SDS011;54596;43.216;27.904;2022-10-16T07:36:19;7.78;;;2.90;;
67798;SDS011;54596;43.216;27.904;2022-10-16T07:38:45;10.40;;;2.80;;
67798;SDS011;54596;43.216;27.904;2022-10-16T07:41:14;11.65;;;2.92;;
67798;SDS011;54596;43.216;27.904;2022-10-16T07:43:45;8.65;;;2.75;;
67798;SDS011;54596;43.216;27.904;2022-10-16T07:46:12;9.40;;;2.50;;
67798;SDS011;54596;43.216;27.904;2022-10-16T07:48:38;7.97;;;2.78;;
67798;SDS011;54596;43.216;27.904;2022-10-16T07:51:05;7.93;;;2.40;;
67798;SDS011;54596;43.216;27.904;2022-10-16T07:53:32;9.23;;;2.60;;
67798;SDS011;54596;43.216;27.904;2022-10-16T07:55:58;8.60;;;2.58;;
67798;SDS011;54596;43.216;27.904;2022-10-16T07:58:25;10.02;;;3.30;;
67798;SDS011;54596;43.216;27.904;2022-10-16T08:00:51;11.18;;;3.72;;
67798;SDS011;54596;43.216;27.904;2022-10-16T08:03:17;11.32;;;3.33;;
67798;SDS011;54596;43.216;27.904;2022-10-16T08:05:42;10.05;;;4.47;;
67798;SDS011;54596;43.216;27.904;2022-10-16T08:08:11;10.48;;;3.70;;
67798;SDS011;54596;43.216;27.904;2022-10-16T08:10:40;9.65;;;3.22;;
67798;SDS011;54596;43.216;27.904;2022-10-16T08:13:06;9.32;;;3.10;;
67798;SDS011;54596;43.216;27.904;2022-10-16T08:15:32;8.05;;;3.00;;
67798;SDS011;54596;43.216;27.904;2022-10-16T08:17:58;8.98;;;2.58;;
67798;SDS011;54596;43.216;27.904;2022-10-16T08:20:28;7.95;;;2.40;;
67798;SDS011;54596;43.216;27.904;2022-10-16T08:22:55;14.50;;;2.75;;
67798;SDS011;54596;43.216;27.904;2022-10-16T08:25:21;8.55;;;3.10;;
67798;SDS011;54596;43.216;27.904;2022-10-16T08:27:48;10.48;;;2.80;;
67798;SDS011;54596;43.216;27.904;2022-10-16T08:30:13;7.88;;;2.85;;
67798;SDS011;54596;43.216;27.904;2022-10-16T08:32:40;8.30;;;2.97;;
67798;SDS011;54596;43.216;27.904;2022-10-16T08:35:07;12.70;;;4.30;;
67798;SDS011;54596;43.216;27.904;2022-10-16T08:37:34;10.65;;;3.10;;
67798;SDS011;54596;43.216;27.904;2022-10-16T08:40:00;9.38;;;4.10;;
67798;SDS011;54596;43.216;27.904;2022-10-16T08:45:30;9.93;;;2.75;;
67798;SDS011;54596;43.216;27.904;2022-10-16T08:50:57;10.45;;;2.70;;
67798;SDS011;54596;43.216;27.904;2022-10-16T08:53:28;11.30;;;3.60;;
67798;SDS011;54596;43.216;27.904;2022-10-16T08:55:58;9.82;;;2.92;;
67798;SDS011;54596;43.216;27.904;2022-10-16T08:58:28;9.18;;;3.03;;
67798;SDS011;54596;43.216;27.904;2022-10-16T09:00:56;11.68;;;3.53;;
67798;SDS011;54596;43.216;27.904;2022-10-16T09:17:24;11.35;;;3.22;;
67798;SDS011;54596;43.216;27.904;2022-10-16T09:19:51;8.00;;;2.88;;
67798;SDS011;54596;43.216;27.904;2022-10-16T09:22:41;8.57;;;2.88;;
67798;SDS011;54596;43.216;27.904;2022-10-16T09:25:14;10.55;;;3.10;;
67798;SDS011;54596;43.216;27.904;2022-10-16T09:27:42;8.95;;;4.05;;
67798;SDS011;54596;43.216;27.904;2022-10-16T09:30:28;8.55;;;3.03;;
67798;SDS011;54596;43.216;27.904;2022-10-16T09:32:54;10.32;;;3.80;;
67798;SDS011;54596;43.216;27.904;2022-10-16T09:35:24;10.50;;;3.20;;
67798;SDS011;54596;43.216;27.904;2022-10-16T09:37:56;10.80;;;3.17;;
67798;SDS011;54596;43.216;27.904;2022-10-16T09:40:26;9.68;;;3.38;;
67798;SDS011;54596;43.216;27.904;2022-10-16T09:43:02;10.50;;;3.05;;
67798;SDS011;54596;43.216;27.904;2022-10-16T09:45:56;8.15;;;3.63;;
67798;SDS011;54596;43.216;27.904;2022-10-16T09:51:26;9.75;;;3.53;;
67798;SDS011;54596;43.216;27.904;2022-10-16T09:53:58;9.30;;;4.28;;
67798;SDS011;54596;43.216;27.904;2022-10-16T09:56:30;8.63;;;3.00;;
67798;SDS011;54596;43.216;27.904;2022-10-16T09:59:02;10.32;;;3.85;;
67798;SDS011;54596;43.216;27.904;2022-10-16T10:01:36;9.02;;;2.45;;
67798;SDS011;54596;43.216;27.904;2022-10-16T10:04:05;7.03;;;2.70;;
67798;SDS011;54596;43.216;27.904;2022-10-16T10:06:33;9.77;;;2.65;;
67798;SDS011;54596;43.216;27.904;2022-10-16T10:09:22;7.32;;;3.00;;
67798;SDS011;54596;43.216;27.904;2022-10-16T10:12:00;8.27;;;3.00;;
67798;SDS011;54596;43.216;27.904;2022-10-16T10:14:29;8.18;;;3.42;;
67798;SDS011;54596;43.216;27.904;2022-10-16T10:19:46;9.05;;;2.75;;
67798;SDS011;54596;43.216;27.904;2022-10-16T10:33:09;11.05;;;3.45;;
67798;SDS011;54596;43.216;27.904;2022-10-16T10:35:45;10.80;;;2.85;;
67798;SDS011;54596;43.216;27.904;2022-10-16T10:41:14;8.45;;;2.80;;
67798;SDS011;54596;43.216;27.904;2022-10-16T11:01:08;10.23;;;3.00;;
67798;SDS011;54596;43.216;27.904;2022-10-16T11:11:41;8.65;;;3.10;;
67798;SDS011;54596;43.216;27.904;2022-10-16T11:17:04;10.73;;;3.28;;
67798;SDS011;54596;43.216;27.904;2022-10-16T11:19:57;11.38;;;4.15;;
67798;SDS011;54596;43.216;27.904;2022-10-16T11:22:32;9.82;;;4.07;;
67798;SDS011;54596;43.216;27.904;2022-10-16T11:25:21;13.20;;;5.23;;
67798;SDS011;54596;43.216;27.904;2022-10-16T11:28:01;15.17;;;7.10;;
67798;SDS011;54596;43.216;27.904;2022-10-16T11:30:29;13.18;;;4.70;;
67798;SDS011;54596;43.216;27.904;2022-10-16T11:35:33;7.63;;;2.83;;
67798;SDS011;54596;43.216;27.904;2022-10-16T11:40:49;8.98;;;2.90;;
67798;SDS011;54596;43.216;27.904;2022-10-16T11:43:25;8.38;;;2.88;;
67798;SDS011;54596;43.216;27.904;2022-10-16T11:45:55;7.32;;;2.72;;
67798;SDS011;54596;43.216;27.904;2022-10-16T11:48:31;8.20;;;2.95;;
67798;SDS011;54596;43.216;27.904;2022-10-16T11:51:19;9.18;;;3.00;;
67798;SDS011;54596;43.216;27.904;2022-10-16T11:56:35;9.95;;;3.33;;
67798;SDS011;54596;43.216;27.904;2022-10-16T11:59:13;9.65;;;2.90;;
67798;SDS011;54596;43.216;27.904;2022-10-16T12:01:53;9.55;;;3.10;;
67798;SDS011;54596;43.216;27.904;2022-10-16T12:04:34;6.95;;;2.70;;
67798;SDS011;54596;43.216;27.904;2022-10-16T12:07:21;7.82;;;2.65;;
67798;SDS011;54596;43.216;27.904;2022-10-16T12:09:52;9.27;;;2.70;;
67798;SDS011;54596;43.216;27.904;2022-10-16T12:15:20;7.90;;;2.97;;
67798;SDS011;54596;43.216;27.904;2022-10-16T12:17:50;10.45;;;3.00;;
67798;SDS011;54596;43.216;27.904;2022-10-16T12:25:22;11.52;;;3.20;;
67798;SDS011;54596;43.216;27.904;2022-10-16T12:28:01;9.37;;;3.03;;
67798;SDS011;54596;43.216;27.904;2022-10-16T12:30:40;8.88;;;3.78;;
67798;SDS011;54596;43.216;27.904;2022-10-16T12:33:15;9.07;;;3.03;;
67798;SDS011;54596;43.216;27.904;2022-10-16T12:35:46;10.27;;;3.20;;
67798;SDS011;54596;43.216;27.904;2022-10-16T12:38:16;9.88;;;3.20;;
67798;SDS011;54596;43.216;27.904;2022-10-16T12:40:44;8.80;;;3.13;;
67798;SDS011;54596;43.216;27.904;2022-10-16T12:46:01;11.65;;;3.28;;
67798;SDS011;54596;43.216;27.904;2022-10-16T12:48:46;10.82;;;3.20;;
67798;SDS011;54596;43.216;27.904;2022-10-16T12:54:04;10.48;;;3.10;;
67798;SDS011;54596;43.216;27.904;2022-10-16T13:18:49;9.85;;;3.80;;
67798;SDS011;54596;43.216;27.904;2022-10-16T13:27:18;10.50;;;3.40;;
67798;SDS011;54596;43.216;27.904;2022-10-16T13:29:47;8.38;;;3.00;;
67798;SDS011;54596;43.216;27.904;2022-10-16T13:32:18;8.02;;;3.20;;
67798;SDS011;54596;43.216;27.904;2022-10-16T13:34:45;9.45;;;3.15;;
67798;SDS011;54596;43.216;27.904;2022-10-16T13:37:20;7.80;;;3.45;;
67798;SDS011;54596;43.216;27.904;2022-10-16T13:39:48;10.77;;;3.55;;
67798;SDS011;54596;43.216;27.904;2022-10-16T13:42:20;9.40;;;3.17;;
67798;SDS011;54596;43.216;27.904;2022-10-16T13:44:51;9.88;;;3.80;;
67798;SDS011;54596;43.216;27.904;2022-10-16T13:47:22;8.60;;;3.20;;
67798;SDS011;54596;43.216;27.904;2022-10-16T13:52:39;15.23;;;5.05;;
67798;SDS011;54596;43.216;27.904;2022-10-16T13:55:12;9.20;;;3.33;;
67798;SDS011;54596;43.216;27.904;2022-10-16T13:57:42;11.00;;;3.22;;
67798;SDS011;54596;43.216;27.904;2022-10-16T14:00:18;9.63;;;3.65;;
67798;SDS011;54596;43.216;27.904;2022-10-16T14:02:49;12.50;;;4.40;;
67798;SDS011;54596;43.216;27.904;2022-10-16T14:05:20;11.88;;;5.07;;
67798;SDS011;54596;43.216;27.904;2022-10-16T14:07:47;9.82;;;3.63;;
67798;SDS011;54596;43.216;27.904;2022-10-16T14:10:20;11.32;;;3.75;;
67798;SDS011;54596;43.216;27.904;2022-10-16T14:13:07;9.85;;;3.40;;
67798;SDS011;54596;43.216;27.904;2022-10-16T14:15:40;9.32;;;3.42;;
67798;SDS011;54596;43.216;27.904;2022-10-16T14:18:14;10.82;;;4.60;;
67798;SDS011;54596;43.216;27.904;2022-10-16T14:20:45;7.93;;;3.10;;
67798;SDS011;54596;43.216;27.904;2022-10-16T14:23:19;9.75;;;3.45;;
67798;SDS011;54596;43.216;27.904;2022-10-16T14:25:47;7.80;;;3.10;;
67798;SDS011;54596;43.216;27.904;2022-10-16T14:30:48;9.13;;;3.58;;
67798;SDS011;54596;43.216;27.904;2022-10-16T14:36:02;12.05;;;3.50;;
67798;SDS011;54596;43.216;27.904;2022-10-16T14:38:28;10.70;;;3.50;;
67798;SDS011;54596;43.216;27.904;2022-10-16T14:40:54;9.50;;;3.38;;
67798;SDS011;54596;43.216;27.904;2022-10-16T14:43:42;12.23;;;4.18;;
67798;SDS011;54596;43.216;27.904;2022-10-16T14:46:41;12.00;;;3.97;;
67798;SDS011;54596;43.216;27.904;2022-10-16T14:51:39;9.38;;;3.25;;
67798;SDS011;54596;43.216;27.904;2022-10-16T14:54:10;11.93;;;3.50;;
67798;SDS011;54596;43.216;27.904;2022-10-16T14:59:23;8.02;;;3.30;;
67798;SDS011;54596;43.216;27.904;2022-10-16T15:01:52;9.48;;;3.35;;
67798;SDS011;54596;43.216;27.904;2022-10-16T15:04:18;13.75;;;4.00;;
67798;SDS011;54596;43.216;27.904;2022-10-16T15:06:43;14.55;;;5.90;;
67798;SDS011;54596;43.216;27.904;2022-10-16T15:09:12;16.67;;;7.00;;
67798;SDS011;54596;43.216;27.904;2022-10-16T15:11:37;11.48;;;3.67;;
67798;SDS011;54596;43.216;27.904;2022-10-16T15:14:04;10.77;;;3.72;;
67798;SDS011;54596;43.216;27.904;2022-10-16T15:16:30;8.52;;;3.60;;
67798;SDS011;54596;43.216;27.904;2022-10-16T15:18:56;10.48;;;4.53;;
67798;SDS011;54596;43.216;27.904;2022-10-16T15:21:24;9.80;;;4.60;;
67798;SDS011;54596;43.216;27.904;2022-10-16T15:23:52;10.07;;;4.47;;
67798;SDS011;54596;43.216;27.904;2022-10-16T15:26:17;11.13;;;4.03;;
67798;SDS011;54596;43.216;27.904;2022-10-16T15:28:43;13.57;;;4.10;;
67798;SDS011;54596;43.216;27.904;2022-10-16T15:31:08;10.82;;;3.67;;
67798;SDS011;54596;43.216;27.904;2022-10-16T15:33:34;11.27;;;3.80;;
67798;SDS011;54596;43.216;27.904;2022-10-16T15:36:00;12.30;;;3.92;;
67798;SDS011;54596;43.216;27.904;2022-10-16T15:38:26;12.50;;;4.22;;
67798;SDS011;54596;43.216;27.904;2022-10-16T15:40:53;12.60;;;4.13;;
67798;SDS011;54596;43.216;27.904;2022-10-16T15:43:18;10.25;;;4.40;;
67798;SDS011;54596;43.216;27.904;2022-10-16T15:45:44;13.45;;;5.80;;
67798;SDS011;54596;43.216;27.904;2022-10-16T15:48:22;14.60;;;6.20;;
67798;SDS011;54596;43.216;27.904;2022-10-16T15:50:48;17.33;;;4.80;;
67798;SDS011;54596;43.216;27.904;2022-10-16T15:53:13;11.30;;;3.88;;
67798;SDS011;54596;43.216;27.904;2022-10-16T15:55:39;14.20;;;4.70;;
67798;SDS011;54596;43.216;27.904;2022-10-16T15:58:04;16.42;;;4.95;;
67798;SDS011;54596;43.216;27.904;2022-10-16T16:00:30;10.90;;;4.40;;
67798;SDS011;54596;43.216;27.904;2022-10-16T16:02:56;12.45;;;5.25;;
67798;SDS011;54596;43.216;27.904;2022-10-16T16:05:21;13.30;;;4.90;;
67798;SDS011;54596;43.216;27.904;2022-10-16T16:07:47;12.40;;;4.82;;
67798;SDS011;54596;43.216;27.904;2022-10-16T16:10:13;13.77;;;5.40;;
67798;SDS011;54596;43.216;27.904;2022-10-16T16:12:39;13.73;;;5.43;;
67798;SDS011;54596;43.216;27.904;2022-10-16T16:15:05;15.05;;;5.43;;
67798;SDS011;54596;43.216;27.904;2022-10-16T16:17:32;15.68;;;6.03;;
67798;SDS011;54596;43.216;27.904;2022-10-16T16:19:59;12.55;;;5.70;;
67798;SDS011;54596;43.216;27.904;2022-10-16T16:22:25;16.05;;;6.50;;
67798;SDS011;54596;43.216;27.904;2022-10-16T16:24:51;17.52;;;6.95;;
67798;SDS011;54596;43.216;27.904;2022-10-16T16:27:17;17.92;;;6.40;;
67798;SDS011;54596;43.216;27.904;2022-10-16T16:29:42;12.70;;;5.88;;
67798;SDS011;54596;43.216;27.904;2022-10-16T16:32:07;17.02;;;6.57;;
67798;SDS011;54596;43.216;27.904;2022-10-16T16:34:33;17.60;;;6.75;;
67798;SDS011;54596;43.216;27.904;2022-10-16T16:36:59;12.40;;;6.00;;
67798;SDS011;54596;43.216;27.904;2022-10-16T16:39:24;13.98;;;6.38;;
67798;SDS011;54596;43.216;27.904;2022-10-16T16:41:50;14.93;;;6.50;;
67798;SDS011;54596;43.216;27.904;2022-10-16T16:44:16;14.35;;;5.95;;
67798;SDS011;54596;43.216;27.904;2022-10-16T16:46:43;14.27;;;6.07;;
67798;SDS011;54596;43.216;27.904;2022-10-16T16:49:12;15.20;;;5.93;;
67798;SDS011;54596;43.216;27.904;2022-10-16T16:51:39;14.35;;;5.70;;
67798;SDS011;54596;43.216;27.904;2022-10-16T16:54:04;12.60;;;6.03;;
67798;SDS011;54596;43.216;27.904;2022-10-16T16:56:32;13.32;;;5.68;;
67798;SDS011;54596;43.216;27.904;2022-10-16T16:58:58;13.15;;;5.53;;
67798;SDS011;54596;43.216;27.904;2022-10-16T17:01:24;14.88;;;5.25;;
67798;SDS011;54596;43.216;27.904;2022-10-16T17:03:51;13.10;;;6.18;;